createdAt,value
2023-06-29T00:00:54.866Z,0.00
2023-06-29T00:01:54.849Z,0.00
2023-06-29T00:02:54.910Z,0.00
2023-06-29T00:03:54.890Z,0.00
2023-06-29T00:04:54.753Z,0.00
2023-06-29T00:05:54.735Z,0.00
2023-06-29T00:06:54.785Z,0.00
2023-06-29T00:07:54.769Z,0.00
2023-06-29T00:08:54.673Z,0.00
2023-06-29T00:09:54.668Z,0.00
2023-06-29T00:10:54.670Z,0.00
2023-06-29T00:11:54.632Z,0.00
2023-06-29T00:12:54.584Z,0.00
2023-06-29T00:13:54.562Z,0.00
2023-06-29T00:14:54.541Z,0.00
2023-06-29T00:15:54.583Z,0.00
2023-06-29T00:16:54.496Z,0.00
2023-06-29T00:17:54.476Z,0.00
2023-06-29T00:18:54.448Z,0.00
2023-06-29T00:19:54.468Z,0.00
2023-06-29T00:20:54.435Z,0.00
2023-06-29T00:21:54.385Z,0.00
2023-06-29T00:22:54.365Z,0.00
2023-06-29T00:23:54.343Z,0.00
2023-06-29T00:24:54.351Z,0.00
2023-06-29T00:25:54.315Z,0.00
2023-06-29T00:26:54.274Z,0.00
2023-06-29T00:27:54.258Z,0.00
2023-06-29T00:28:54.224Z,0.00
2023-06-29T00:29:54.236Z,0.00
2023-06-29T00:30:54.198Z,0.00
2023-06-29T00:31:54.159Z,0.00
2023-06-29T00:32:54.203Z,0.00
2023-06-29T00:33:54.151Z,0.00
2023-06-29T00:34:54.128Z,0.00
2023-06-29T00:35:54.081Z,0.00
2023-06-29T00:36:54.056Z,0.00
2023-06-29T00:37:54.037Z,0.00
2023-06-29T00:38:54.040Z,0.00
2023-06-29T00:39:54.004Z,0.00
2023-06-29T00:40:53.970Z,0.00
2023-06-29T00:41:53.946Z,0.00
2023-06-29T00:42:53.924Z,0.00
2023-06-29T00:43:53.945Z,0.00
2023-06-29T00:44:53.885Z,0.00
2023-06-29T00:45:53.861Z,0.00
2023-06-29T00:46:53.867Z,0.00
2023-06-29T00:47:53.856Z,0.00
2023-06-29T00:48:53.844Z,0.00
2023-06-29T00:49:53.778Z,0.00
2023-06-29T00:50:53.752Z,0.00
2023-06-29T00:51:53.730Z,0.00
2023-06-29T00:52:53.736Z,0.00
2023-06-29T00:53:53.688Z,0.00
2023-06-29T00:54:53.670Z,0.00
2023-06-29T00:55:53.648Z,0.00
2023-06-29T00:56:53.624Z,0.00
2023-06-29T00:57:53.639Z,0.00
2023-06-29T00:58:53.595Z,0.00
2023-06-29T00:59:53.572Z,0.00
2023-06-29T01:00:53.637Z,0.00
2023-06-29T01:01:54.563Z,0.00
2023-06-29T01:02:53.688Z,0.00
2023-06-29T01:03:53.574Z,0.00
2023-06-29T01:04:53.468Z,0.00
2023-06-29T01:05:53.449Z,0.00
2023-06-29T01:06:53.527Z,0.00
2023-06-29T01:07:53.415Z,0.00
2023-06-29T01:08:53.389Z,0.00
2023-06-29T01:09:53.368Z,0.00
2023-06-29T01:10:53.361Z,0.00
2023-06-29T01:11:53.376Z,0.00
2023-06-29T01:12:53.308Z,0.00
2023-06-29T01:13:53.286Z,0.00
2023-06-29T01:14:53.266Z,0.00
2023-06-29T01:15:53.271Z,0.00
2023-06-29T01:16:53.311Z,0.00
2023-06-29T01:17:53.260Z,0.00
2023-06-29T01:18:53.193Z,0.00
2023-06-29T01:19:53.164Z,0.00
2023-06-29T01:20:53.171Z,0.00
2023-06-29T01:21:53.118Z,0.00
2023-06-29T01:22:53.118Z,0.00
2023-06-29T01:23:53.079Z,0.00
2023-06-29T01:24:53.086Z,0.00
2023-06-29T01:25:53.066Z,0.00
2023-06-29T01:26:53.012Z,0.00
2023-06-29T01:27:52.996Z,0.00
2023-06-29T01:28:52.986Z,0.00
2023-06-29T01:29:53.012Z,0.00
2023-06-29T01:30:52.972Z,0.00
2023-06-29T01:31:52.940Z,0.00
2023-06-29T01:32:52.950Z,0.00
2023-06-29T01:33:52.879Z,0.00
2023-06-29T01:34:52.882Z,0.00
2023-06-29T01:35:52.830Z,0.00
2023-06-29T01:36:52.813Z,0.00
2023-06-29T01:37:52.795Z,0.00
2023-06-29T01:38:52.855Z,0.00
2023-06-29T01:39:52.777Z,0.00
2023-06-29T01:40:52.728Z,0.00
2023-06-29T01:41:52.704Z,0.00
2023-06-29T01:42:52.679Z,0.00
2023-06-29T01:43:52.694Z,0.00
2023-06-29T01:44:52.638Z,0.00
2023-06-29T01:45:52.652Z,0.00
2023-06-29T01:46:52.595Z,0.00
2023-06-29T01:47:52.624Z,0.00
2023-06-29T01:48:52.595Z,0.00
2023-06-29T01:49:52.533Z,0.00
2023-06-29T01:50:52.511Z,0.00
2023-06-29T01:51:52.495Z,0.00
2023-06-29T01:52:52.501Z,0.00
2023-06-29T01:53:52.485Z,0.00
2023-06-29T01:54:52.424Z,0.00
2023-06-29T01:55:52.411Z,0.00
2023-06-29T01:56:52.386Z,0.00
2023-06-29T01:57:52.392Z,0.00
2023-06-29T01:58:52.348Z,0.00
2023-06-29T01:59:52.321Z,0.00
2023-06-29T02:00:52.298Z,0.00
2023-06-29T02:01:52.369Z,0.00
2023-06-29T02:02:52.348Z,0.00
2023-06-29T02:03:52.383Z,0.00
2023-06-29T02:04:52.216Z,0.00
2023-06-29T02:05:52.198Z,0.00
2023-06-29T02:06:52.242Z,0.00
2023-06-29T02:07:52.181Z,0.00
2023-06-29T02:08:52.132Z,0.00
2023-06-29T02:09:52.112Z,0.00
2023-06-29T02:10:52.092Z,0.00
2023-06-29T02:11:52.112Z,0.00
2023-06-29T02:12:52.053Z,0.00
2023-06-29T02:13:52.033Z,0.00
2023-06-29T02:14:52.010Z,0.00
2023-06-29T02:15:52.016Z,0.00
2023-06-29T02:16:51.999Z,0.00
2023-06-29T02:17:52.039Z,0.00
2023-06-29T02:18:51.929Z,0.00
2023-06-29T02:19:51.925Z,0.00
2023-06-29T02:20:51.919Z,0.00
2023-06-29T02:21:51.905Z,0.00
2023-06-29T02:22:51.844Z,0.00
2023-06-29T02:23:51.825Z,0.00
2023-06-29T02:24:51.805Z,0.00
2023-06-29T02:25:51.815Z,0.00
2023-06-29T02:26:51.763Z,0.00
2023-06-29T02:27:51.753Z,0.00
2023-06-29T02:28:51.722Z,0.00
2023-06-29T02:29:51.704Z,0.00
2023-06-29T02:30:51.709Z,0.00
2023-06-29T02:31:51.730Z,0.00
2023-06-29T02:32:51.710Z,0.00
2023-06-29T02:33:51.648Z,0.00
2023-06-29T02:34:51.627Z,0.00
2023-06-29T02:35:51.600Z,0.00
2023-06-29T02:36:51.554Z,0.00
2023-06-29T02:37:51.548Z,0.00
2023-06-29T02:38:51.521Z,0.00
2023-06-29T02:39:51.525Z,0.00
2023-06-29T02:40:51.487Z,0.00
2023-06-29T02:41:51.447Z,0.00
2023-06-29T02:42:51.427Z,0.00
2023-06-29T02:43:51.437Z,0.00
2023-06-29T02:44:51.415Z,0.00
2023-06-29T02:45:51.372Z,0.00
2023-06-29T02:46:51.410Z,0.00
2023-06-29T02:47:51.455Z,0.00
2023-06-29T02:48:51.335Z,0.00
2023-06-29T02:49:51.282Z,0.00
2023-06-29T02:50:51.252Z,0.00
2023-06-29T02:51:51.241Z,0.00
2023-06-29T02:52:51.211Z,0.00
2023-06-29T02:53:51.220Z,0.00
2023-06-29T02:54:51.177Z,0.00
2023-06-29T02:55:51.148Z,0.00
2023-06-29T02:56:51.123Z,0.00
2023-06-29T02:57:51.127Z,0.00
2023-06-29T02:58:52.112Z,0.00
2023-06-29T02:59:51.061Z,0.00
2023-06-29T03:00:51.051Z,0.00
2023-06-29T03:01:51.012Z,0.00
2023-06-29T03:02:51.111Z,0.00
2023-06-29T03:03:50.978Z,0.00
2023-06-29T03:04:50.951Z,0.00
2023-06-29T03:05:50.934Z,0.00
2023-06-29T03:06:50.921Z,0.00
2023-06-29T03:07:50.914Z,0.00
2023-06-29T03:08:50.858Z,5.62
2023-06-29T03:09:50.830Z,5.62
2023-06-29T03:10:50.874Z,5.62
2023-06-29T03:11:50.851Z,5.62
2023-06-29T03:12:50.794Z,5.62
2023-06-29T03:13:50.745Z,5.62
2023-06-29T03:14:50.721Z,5.62
2023-06-29T03:15:50.704Z,5.62
2023-06-29T03:16:50.736Z,5.62
2023-06-29T03:17:50.696Z,5.62
2023-06-29T03:18:50.638Z,5.62
2023-06-29T03:19:50.634Z,11.25
2023-06-29T03:20:50.618Z,11.25
2023-06-29T03:21:50.609Z,11.25
2023-06-29T03:22:50.543Z,11.25
2023-06-29T03:23:50.524Z,11.25
2023-06-29T03:24:50.520Z,11.25
2023-06-29T03:25:50.510Z,11.25
2023-06-29T03:26:52.457Z,16.88
2023-06-29T03:27:50.446Z,16.88
2023-06-29T03:28:51.415Z,16.88
2023-06-29T03:29:50.436Z,16.88
2023-06-29T03:30:50.433Z,16.88
2023-06-29T03:31:50.361Z,16.88
2023-06-29T03:32:50.363Z,22.50
2023-06-29T03:33:51.307Z,22.50
2023-06-29T03:34:50.324Z,22.50
2023-06-29T03:35:50.304Z,22.50
2023-06-29T03:36:51.047Z,22.50
2023-06-29T03:37:50.229Z,28.12
2023-06-29T03:38:50.210Z,28.12
2023-06-29T03:39:50.216Z,28.12
2023-06-29T03:40:50.164Z,28.12
2023-06-29T03:41:50.152Z,28.12
2023-06-29T03:42:50.123Z,33.75
2023-06-29T03:43:50.102Z,33.75
2023-06-29T03:44:50.114Z,33.75
2023-06-29T03:45:50.061Z,39.38
2023-06-29T03:46:50.036Z,39.38
2023-06-29T03:47:50.155Z,45.00
2023-06-29T03:48:50.104Z,45.00
2023-06-29T03:49:50.002Z,45.00
2023-06-29T03:50:50.670Z,50.62
2023-06-29T03:51:49.931Z,50.62
2023-06-29T03:52:49.917Z,56.25
2023-06-29T03:53:49.924Z,56.25
2023-06-29T03:54:49.871Z,56.25
2023-06-29T03:55:49.846Z,61.88
2023-06-29T03:56:49.825Z,67.50
2023-06-29T03:57:49.806Z,67.50
2023-06-29T03:58:50.508Z,73.12
2023-06-29T03:59:49.759Z,78.75
2023-06-29T04:00:49.739Z,78.75
2023-06-29T04:01:49.764Z,84.38
2023-06-29T04:02:49.785Z,90.00
2023-06-29T04:03:49.736Z,95.62
2023-06-29T04:04:49.657Z,101.25
2023-06-29T04:05:49.631Z,101.25
2023-06-29T04:06:50.467Z,101.25
2023-06-29T04:07:49.619Z,106.88
2023-06-29T04:08:49.573Z,106.88
2023-06-29T04:09:49.542Z,106.88
2023-06-29T04:10:50.520Z,106.88
2023-06-29T04:11:49.531Z,112.50
2023-06-29T04:12:49.537Z,112.50
2023-06-29T04:13:49.460Z,118.12
2023-06-29T04:14:49.433Z,123.75
2023-06-29T04:15:50.128Z,135.00
2023-06-29T04:16:49.512Z,146.25
2023-06-29T04:17:49.467Z,157.50
2023-06-29T04:18:49.350Z,168.75
2023-06-29T04:19:49.330Z,185.62
2023-06-29T04:20:49.320Z,196.88
2023-06-29T04:21:49.320Z,208.12
2023-06-29T04:22:49.297Z,213.75
2023-06-29T04:23:49.249Z,219.38
2023-06-29T04:24:49.236Z,225.00
2023-06-29T04:25:50.240Z,230.62
2023-06-29T04:26:49.215Z,236.25
2023-06-29T04:27:49.164Z,247.50
2023-06-29T04:28:49.194Z,253.12
2023-06-29T04:29:49.136Z,258.75
2023-06-29T04:30:49.189Z,264.38
2023-06-29T04:31:49.078Z,270.00
2023-06-29T04:32:49.191Z,275.62
2023-06-29T04:33:49.038Z,281.25
2023-06-29T04:34:49.199Z,281.25
2023-06-29T04:35:48.993Z,286.88
2023-06-29T04:36:48.975Z,292.50
2023-06-29T04:37:48.955Z,292.50
2023-06-29T04:38:48.963Z,292.50
2023-06-29T04:39:48.968Z,286.88
2023-06-29T04:40:48.887Z,281.25
2023-06-29T04:41:48.872Z,270.00
2023-06-29T04:42:48.985Z,253.12
2023-06-29T04:43:48.848Z,236.25
2023-06-29T04:44:48.838Z,219.38
2023-06-29T04:45:48.794Z,213.75
2023-06-29T04:46:48.921Z,202.50
2023-06-29T04:47:48.776Z,196.88
2023-06-29T04:48:48.751Z,191.25
2023-06-29T04:49:48.745Z,191.25
2023-06-29T04:50:48.713Z,191.25
2023-06-29T04:51:48.664Z,191.25
2023-06-29T04:52:49.643Z,191.25
2023-06-29T04:53:48.653Z,196.88
2023-06-29T04:54:48.605Z,202.50
2023-06-29T04:55:48.609Z,202.50
2023-06-29T04:56:48.558Z,208.12
2023-06-29T04:57:48.546Z,208.12
2023-06-29T04:58:48.551Z,213.75
2023-06-29T04:59:48.501Z,213.75
2023-06-29T05:00:48.469Z,219.38
2023-06-29T05:01:48.499Z,219.38
2023-06-29T05:02:48.571Z,230.62
2023-06-29T05:03:48.570Z,241.88
2023-06-29T05:04:48.390Z,253.12
2023-06-29T05:05:48.375Z,264.38
2023-06-29T05:06:48.362Z,264.38
2023-06-29T05:07:48.380Z,270.00
2023-06-29T05:08:48.332Z,270.00
2023-06-29T05:09:48.290Z,270.00
2023-06-29T05:10:48.283Z,275.62
2023-06-29T05:11:48.282Z,281.25
2023-06-29T05:12:48.256Z,286.88
2023-06-29T05:13:48.210Z,292.50
2023-06-29T05:14:48.189Z,309.38
2023-06-29T05:15:48.167Z,320.62
2023-06-29T05:16:48.233Z,331.88
2023-06-29T05:17:48.203Z,348.75
2023-06-29T05:18:48.116Z,360.00
2023-06-29T05:19:48.108Z,365.62
2023-06-29T05:20:48.098Z,371.25
2023-06-29T05:21:48.088Z,376.88
2023-06-29T05:22:48.036Z,376.88
2023-06-29T05:23:48.020Z,371.25
2023-06-29T05:24:47.990Z,371.25
2023-06-29T05:25:48.005Z,371.25
2023-06-29T05:26:47.997Z,376.88
2023-06-29T05:27:47.935Z,388.12
2023-06-29T05:29:03.621Z,399.38
2023-06-29T05:29:49.921Z,405.00
2023-06-29T05:30:47.941Z,410.62
2023-06-29T05:31:47.904Z,416.25
2023-06-29T05:32:47.882Z,421.88
2023-06-29T05:33:47.823Z,433.12
2023-06-29T05:34:47.802Z,444.38
2023-06-29T05:35:47.811Z,455.62
2023-06-29T05:36:47.769Z,466.88
2023-06-29T05:37:47.747Z,478.12
2023-06-29T05:38:47.730Z,489.38
2023-06-29T05:39:47.736Z,500.62
2023-06-29T05:40:47.722Z,517.50
2023-06-29T05:41:47.673Z,540.00
2023-06-29T05:42:47.668Z,562.50
2023-06-29T05:43:47.633Z,596.25
2023-06-29T05:44:47.667Z,641.25
2023-06-29T05:45:47.781Z,714.38
2023-06-29T05:46:47.598Z,1496.25
2023-06-29T05:47:47.649Z,905.62
2023-06-29T05:48:47.542Z,776.25
2023-06-29T05:49:47.551Z,765.00
2023-06-29T05:50:47.502Z,759.38
2023-06-29T05:51:47.486Z,759.38
2023-06-29T05:52:49.386Z,765.00
2023-06-29T05:53:47.475Z,770.62
2023-06-29T05:54:47.463Z,770.62
2023-06-29T05:55:47.411Z,753.75
2023-06-29T05:56:47.393Z,742.50
2023-06-29T05:57:47.368Z,725.62
2023-06-29T05:58:47.387Z,720.00
2023-06-29T05:59:47.341Z,720.00
2023-06-29T06:00:47.323Z,736.88
2023-06-29T06:01:47.375Z,770.62
2023-06-29T06:02:47.430Z,804.38
2023-06-29T06:03:47.346Z,832.50
2023-06-29T06:04:47.243Z,855.00
2023-06-29T06:05:47.229Z,866.25
2023-06-29T06:06:47.214Z,877.50
2023-06-29T06:07:47.225Z,911.25
2023-06-29T06:08:47.213Z,973.12
2023-06-29T06:09:47.157Z,1040.62
2023-06-29T06:10:47.302Z,1074.38
2023-06-29T06:11:48.129Z,1074.38
2023-06-29T06:12:47.148Z,1276.88
2023-06-29T06:13:47.628Z,1248.75
2023-06-29T06:14:47.103Z,1108.12
2023-06-29T06:15:47.100Z,1141.88
2023-06-29T06:16:47.039Z,1181.25
2023-06-29T06:17:47.057Z,1158.75
2023-06-29T06:18:46.993Z,1085.62
2023-06-29T06:19:46.978Z,995.62
2023-06-29T06:20:47.001Z,922.50
2023-06-29T06:21:46.984Z,871.88
2023-06-29T06:22:46.949Z,849.38
2023-06-29T06:23:46.896Z,860.62
2023-06-29T06:24:46.880Z,900.00
2023-06-29T06:25:46.861Z,961.88
2023-06-29T06:26:47.871Z,1035.00
2023-06-29T06:27:46.861Z,1108.12
2023-06-29T06:28:46.805Z,1164.38
2023-06-29T06:29:46.792Z,1153.12
2023-06-29T06:30:47.029Z,1074.38
2023-06-29T06:31:46.803Z,978.75
2023-06-29T06:32:46.761Z,916.88
2023-06-29T06:33:46.720Z,860.62
2023-06-29T06:34:46.702Z,815.62
2023-06-29T06:35:46.723Z,781.88
2023-06-29T06:36:46.660Z,759.38
2023-06-29T06:37:46.633Z,736.88
2023-06-29T06:38:50.446Z,714.38
2023-06-29T06:39:47.601Z,686.25
2023-06-29T06:40:46.776Z,663.75
2023-06-29T06:41:46.582Z,652.50
2023-06-29T06:42:46.552Z,652.50
2023-06-29T06:43:46.530Z,669.38
2023-06-29T06:44:46.540Z,703.12
2023-06-29T06:45:46.516Z,759.38
2023-06-29T06:46:46.479Z,849.38
2023-06-29T06:47:46.498Z,995.62
2023-06-29T06:48:46.434Z,1355.62
2023-06-29T06:49:46.440Z,1704.38
2023-06-29T06:50:46.392Z,1507.50
2023-06-29T06:51:46.376Z,1440.00
2023-06-29T06:52:46.355Z,1389.38
2023-06-29T06:53:46.336Z,1366.88
2023-06-29T06:54:46.357Z,1518.75
2023-06-29T06:55:46.301Z,2570.62
2023-06-29T06:56:46.281Z,2548.12
2023-06-29T06:57:46.260Z,1726.88
2023-06-29T06:58:46.276Z,2070.00
2023-06-29T06:59:46.256Z,1400.62
2023-06-29T07:00:46.466Z,3375.00
2023-06-29T07:01:46.229Z,3268.12
2023-06-29T07:02:46.241Z,2767.50
2023-06-29T07:03:46.195Z,3476.25
2023-06-29T07:04:46.133Z,3706.88
2023-06-29T07:05:46.118Z,2660.62
2023-06-29T07:06:46.098Z,3470.62
2023-06-29T07:07:46.077Z,3060.00
2023-06-29T07:08:46.093Z,3588.75
2023-06-29T07:09:46.045Z,2233.12
2023-06-29T07:10:46.205Z,2610.00
2023-06-29T07:11:46.004Z,2823.75
2023-06-29T07:12:46.045Z,3712.50
2023-06-29T07:13:45.998Z,3493.12
2023-06-29T07:14:45.961Z,3459.38
2023-06-29T07:15:45.960Z,3133.12
2023-06-29T07:16:46.017Z,3285.00
2023-06-29T07:17:45.987Z,3420.00
2023-06-29T07:18:45.884Z,3532.50
2023-06-29T07:24:06.408Z,3481.88
2023-06-29T07:24:46.784Z,3031.88
2023-06-29T07:25:46.014Z,3706.88
2023-06-29T07:26:45.779Z,3526.88
2023-06-29T07:27:45.762Z,3425.62
2023-06-29T07:28:45.709Z,3380.62
2023-06-29T07:29:45.700Z,3594.38
2023-06-29T07:30:45.760Z,3836.25
2023-06-29T07:31:45.693Z,4005.00
2023-06-29T07:32:45.659Z,3796.88
2023-06-29T07:33:45.624Z,3881.25
2023-06-29T07:34:45.617Z,3813.75
2023-06-29T07:35:45.854Z,3830.62
2023-06-29T07:36:45.612Z,3650.62
2023-06-29T07:37:45.567Z,3774.38
2023-06-29T07:38:45.541Z,3768.75
2023-06-29T07:39:45.525Z,3695.62
2023-06-29T07:40:49.571Z,4050.00
2023-06-29T07:41:46.500Z,3931.88
2023-06-29T07:42:46.476Z,3886.88
2023-06-29T07:43:45.464Z,3740.62
2023-06-29T07:44:45.454Z,3397.50
2023-06-29T07:45:45.715Z,3543.75
2023-06-29T07:46:45.409Z,3650.62
2023-06-29T07:47:45.516Z,3577.50
2023-06-29T07:48:45.486Z,3183.75
2023-06-29T07:49:45.390Z,2683.12
2023-06-29T07:50:45.377Z,2452.50
2023-06-29T07:51:45.367Z,2430.00
2023-06-29T07:52:45.323Z,2576.25
2023-06-29T07:53:45.314Z,2677.50
2023-06-29T07:54:45.313Z,2531.25
2023-06-29T07:55:45.459Z,2722.50
2023-06-29T07:58:46.215Z,4089.38
2023-06-29T07:59:45.226Z,4156.88
2023-06-29T08:00:45.190Z,3667.50
2023-06-29T08:01:45.264Z,3183.75
2023-06-29T08:02:45.186Z,3735.00
2023-06-29T08:04:01.476Z,3622.50
2023-06-29T08:06:53.644Z,1710.00
2023-06-29T08:07:47.180Z,2919.38
2023-06-29T08:08:45.273Z,1935.00
2023-06-29T08:09:45.050Z,2216.25
2023-06-29T08:10:45.272Z,1867.50
2023-06-29T08:11:45.003Z,2351.25
2023-06-29T08:12:44.986Z,1653.75
2023-06-29T08:13:45.002Z,1665.00
2023-06-29T08:14:45.030Z,2030.62
2023-06-29T08:15:44.934Z,1884.38
2023-06-29T08:16:44.979Z,1822.50
2023-06-29T08:17:44.954Z,2491.88
2023-06-29T08:18:45.177Z,2334.38
2023-06-29T08:19:44.877Z,2829.38
2023-06-29T08:20:44.989Z,2660.62
2023-06-29T08:21:44.844Z,2773.12
2023-06-29T08:22:44.860Z,1946.25
2023-06-29T08:23:44.807Z,3645.00
2023-06-29T08:24:44.794Z,2514.38
2023-06-29T08:25:44.776Z,2958.75
2023-06-29T08:26:44.797Z,3414.38
2023-06-29T08:27:44.767Z,3526.88
2023-06-29T08:28:44.721Z,3054.38
2023-06-29T08:29:44.704Z,3802.50
2023-06-29T08:30:44.919Z,3127.50
2023-06-29T08:31:44.786Z,2497.50
2023-06-29T08:32:44.695Z,3166.88
2023-06-29T08:33:44.667Z,3245.62
2023-06-29T08:34:44.623Z,3144.38
2023-06-29T08:35:44.608Z,1878.75
2023-06-29T08:36:44.616Z,2638.12
2023-06-29T08:37:44.574Z,2424.38
2023-06-29T08:38:45.565Z,2205.00
2023-06-29T08:39:44.553Z,2295.00
2023-06-29T08:40:44.673Z,1710.00
2023-06-29T08:41:44.546Z,1434.38
2023-06-29T08:42:44.500Z,1445.62
2023-06-29T08:43:44.481Z,1395.00
2023-06-29T08:44:44.457Z,1299.38
2023-06-29T08:45:44.516Z,1496.25
2023-06-29T08:46:44.494Z,1113.75
2023-06-29T08:47:44.460Z,1462.50
2023-06-29T08:48:44.399Z,1670.62
2023-06-29T08:49:44.373Z,2536.88
2023-06-29T08:50:44.586Z,2705.62
2023-06-29T08:51:44.338Z,2823.75
2023-06-29T08:52:44.338Z,1710.00
2023-06-29T08:53:44.322Z,2025.00
2023-06-29T08:54:44.318Z,1338.75
2023-06-29T08:55:44.299Z,1108.12
2023-06-29T08:56:44.254Z,1119.38
2023-06-29T08:57:44.231Z,1276.88
2023-06-29T08:58:44.214Z,1198.12
2023-06-29T08:59:44.235Z,1226.25
2023-06-29T09:00:44.370Z,1378.12
2023-06-29T09:01:44.239Z,1608.75
2023-06-29T09:02:44.192Z,1648.12
2023-06-29T09:03:44.285Z,1344.38
2023-06-29T09:04:44.133Z,1282.50
2023-06-29T09:05:44.080Z,1276.88
2023-06-29T09:06:45.071Z,1310.62
2023-06-29T09:07:44.109Z,1220.62
2023-06-29T09:08:44.118Z,1102.50
2023-06-29T09:09:44.048Z,1158.75
2023-06-29T09:10:44.130Z,1158.75
2023-06-29T09:11:44.062Z,1130.62
2023-06-29T09:12:43.970Z,1040.62
2023-06-29T09:13:43.976Z,995.62
2023-06-29T09:14:43.932Z,945.00
2023-06-29T09:15:43.950Z,939.38
2023-06-29T09:16:43.938Z,1012.50
2023-06-29T09:17:44.604Z,1051.88
2023-06-29T09:18:43.891Z,1068.75
2023-06-29T09:19:43.848Z,1102.50
2023-06-29T09:20:44.110Z,1136.25
2023-06-29T09:21:43.813Z,1181.25
2023-06-29T09:22:43.825Z,1198.12
2023-06-29T09:23:43.820Z,1299.38
2023-06-29T09:24:56.943Z,1350.00
2023-06-29T09:25:45.756Z,1378.12
2023-06-29T09:26:43.736Z,1361.25
2023-06-29T09:27:43.753Z,1305.00
2023-06-29T09:28:43.758Z,1243.12
2023-06-29T09:29:43.679Z,1170.00
2023-06-29T09:30:44.078Z,1108.12
2023-06-29T09:31:43.698Z,1035.00
2023-06-29T09:32:43.681Z,956.25
2023-06-29T09:33:43.614Z,905.62
2023-06-29T09:34:43.591Z,871.88
2023-06-29T09:35:43.577Z,849.38
2023-06-29T09:36:43.585Z,843.75
2023-06-29T09:37:43.538Z,866.25
2023-06-29T09:38:44.476Z,900.00
2023-06-29T09:39:43.514Z,922.50
2023-06-29T09:40:43.669Z,939.38
2023-06-29T09:41:43.589Z,945.00
2023-06-29T09:42:43.452Z,945.00
2023-06-29T09:43:43.432Z,973.12
2023-06-29T09:44:43.443Z,1001.25
2023-06-29T09:45:43.438Z,1029.38
2023-06-29T09:46:43.619Z,1057.50
2023-06-29T09:49:44.428Z,1018.12
2023-06-29T09:50:43.623Z,995.62
2023-06-29T09:51:43.300Z,961.88
2023-06-29T09:52:43.307Z,911.25
2023-06-29T09:53:43.264Z,843.75
2023-06-29T09:54:43.246Z,798.75
2023-06-29T09:55:43.263Z,759.38
2023-06-29T09:56:43.207Z,731.25
2023-06-29T09:57:43.191Z,714.38
2023-06-29T09:58:43.177Z,697.50
2023-06-29T09:59:43.153Z,663.75
2023-06-29T10:00:43.436Z,618.75
2023-06-29T10:01:43.171Z,573.75
2023-06-29T10:02:43.173Z,545.62
2023-06-29T10:03:43.131Z,523.12
2023-06-29T10:04:43.148Z,506.25
2023-06-29T10:05:43.086Z,500.62
2023-06-29T10:06:43.032Z,495.00
2023-06-29T10:07:43.161Z,489.38
2023-06-29T10:08:43.001Z,489.38
2023-06-29T10:09:43.014Z,500.62
2023-06-29T10:10:43.159Z,511.88
2023-06-29T10:11:42.941Z,511.88
2023-06-29T10:12:42.920Z,517.50
2023-06-29T10:13:43.933Z,517.50
2023-06-29T10:14:42.951Z,506.25
2023-06-29T10:15:42.866Z,483.75
2023-06-29T10:16:42.912Z,478.12
2023-06-29T10:17:42.908Z,472.50
2023-06-29T10:18:42.906Z,478.12
2023-06-29T10:19:42.873Z,483.75
2023-06-29T10:20:43.109Z,489.38
2023-06-29T10:21:43.766Z,489.38
2023-06-29T10:22:42.750Z,495.00
2023-06-29T10:23:42.767Z,500.62
2023-06-29T10:24:42.721Z,506.25
2023-06-29T10:25:42.723Z,511.88
2023-06-29T10:26:42.682Z,523.12
2023-06-29T10:27:42.691Z,534.38
2023-06-29T10:28:42.665Z,540.00
2023-06-29T10:29:42.629Z,551.25
2023-06-29T10:30:42.835Z,556.88
2023-06-29T10:31:42.640Z,556.88
2023-06-29T10:32:42.668Z,562.50
2023-06-29T10:33:42.557Z,562.50
2023-06-29T10:34:43.548Z,562.50
2023-06-29T10:35:42.524Z,568.12
2023-06-29T10:36:42.518Z,562.50
2023-06-29T10:37:42.522Z,551.25
2023-06-29T10:38:42.475Z,545.62
2023-06-29T10:39:42.453Z,540.00
2023-06-29T10:40:42.743Z,534.38
2023-06-29T10:41:42.450Z,534.38
2023-06-29T10:42:42.432Z,534.38
2023-06-29T10:43:42.387Z,534.38
2023-06-29T10:44:42.374Z,523.12
2023-06-29T10:45:42.348Z,517.50
2023-06-29T10:46:42.410Z,517.50
2023-06-29T10:47:42.372Z,511.88
2023-06-29T10:48:48.446Z,511.88
2023-06-29T10:49:44.280Z,511.88
2023-06-29T10:50:42.463Z,506.25
2023-06-29T10:51:42.277Z,495.00
2023-06-29T10:52:42.232Z,495.00
2023-06-29T10:53:42.214Z,489.38
2023-06-29T10:54:42.274Z,483.75
2023-06-29T10:55:42.212Z,478.12
2023-06-29T10:56:42.198Z,472.50
2023-06-29T10:57:42.145Z,466.88
2023-06-29T10:58:42.129Z,455.62
2023-06-29T10:59:42.118Z,450.00
2023-06-29T11:00:42.443Z,455.62
2023-06-29T11:01:42.162Z,466.88
2023-06-29T11:02:42.062Z,483.75
2023-06-29T11:03:42.069Z,489.38
2023-06-29T11:04:42.054Z,506.25
2023-06-29T11:05:42.031Z,511.88
2023-06-29T11:06:41.996Z,517.50
2023-06-29T11:07:42.081Z,528.75
2023-06-29T11:08:41.954Z,528.75
2023-06-29T11:09:42.001Z,517.50
2023-06-29T11:10:41.940Z,506.25
2023-06-29T11:11:41.890Z,500.62
2023-06-29T11:12:41.891Z,500.62
2023-06-29T11:13:41.853Z,500.62
2023-06-29T11:14:41.865Z,495.00
2023-06-29T11:15:41.822Z,489.38
2023-06-29T11:16:41.801Z,483.75
2023-06-29T11:17:41.856Z,472.50
2023-06-29T11:18:42.053Z,461.25
2023-06-29T11:19:41.772Z,455.62
2023-06-29T11:20:41.820Z,450.00
2023-06-29T11:21:41.761Z,450.00
2023-06-29T11:22:41.783Z,450.00
2023-06-29T11:23:41.723Z,461.25
2023-06-29T11:24:41.652Z,466.88
2023-06-29T11:25:41.638Z,483.75
2023-06-29T11:26:41.614Z,506.25
2023-06-29T11:27:41.598Z,523.12
2023-06-29T11:28:41.612Z,540.00
2023-06-29T11:29:41.582Z,545.62
2023-06-29T11:30:41.561Z,556.88
2023-06-29T11:31:41.548Z,562.50
2023-06-29T11:32:42.563Z,556.88
2023-06-29T11:33:41.515Z,551.25
2023-06-29T11:34:41.491Z,540.00
2023-06-29T11:35:41.478Z,528.75
2023-06-29T11:36:41.436Z,523.12
2023-06-29T11:37:41.539Z,523.12
2023-06-29T11:38:41.437Z,523.12
2023-06-29T11:39:41.389Z,523.12
2023-06-29T11:40:41.391Z,528.75
2023-06-29T11:41:41.360Z,528.75
2023-06-29T11:42:41.380Z,534.38
2023-06-29T11:43:41.318Z,551.25
2023-06-29T11:44:41.293Z,562.50
2023-06-29T11:45:41.296Z,579.38
2023-06-29T11:46:41.326Z,596.25
2023-06-29T11:47:41.329Z,630.00
2023-06-29T11:48:41.231Z,663.75
2023-06-29T11:49:41.203Z,697.50
2023-06-29T11:50:41.203Z,748.12
2023-06-29T11:51:41.959Z,798.75
2023-06-29T11:52:41.149Z,832.50
2023-06-29T11:53:41.139Z,843.75
2023-06-29T11:54:41.120Z,838.12
2023-06-29T11:55:41.096Z,826.88
2023-06-29T11:56:41.118Z,804.38
2023-06-29T11:57:41.062Z,810.00
2023-06-29T11:58:41.061Z,849.38
2023-06-29T11:59:41.015Z,736.88
2023-06-29T12:00:42.050Z,703.12
2023-06-29T12:01:41.073Z,675.00
2023-06-29T12:02:41.060Z,641.25
2023-06-29T12:03:41.051Z,607.50
2023-06-29T12:04:40.975Z,585.00
2023-06-29T12:05:40.948Z,573.75
2023-06-29T12:06:40.903Z,562.50
2023-06-29T12:07:40.949Z,562.50
2023-06-29T12:08:40.955Z,562.50
2023-06-29T12:09:41.857Z,562.50
2023-06-29T12:10:40.860Z,568.12
2023-06-29T12:11:40.963Z,568.12
2023-06-29T12:12:40.792Z,579.38
2023-06-29T12:13:40.772Z,590.62
2023-06-29T12:14:40.802Z,601.88
2023-06-29T12:15:40.895Z,607.50
2023-06-29T12:18:41.816Z,618.75
2023-06-29T12:19:51.290Z,624.38
2023-06-29T12:20:42.700Z,630.00
2023-06-29T12:21:40.840Z,635.62
2023-06-29T12:22:40.617Z,646.88
2023-06-29T12:23:40.602Z,646.88
2023-06-29T12:24:40.614Z,641.25
2023-06-29T12:25:40.566Z,635.62
2023-06-29T12:26:40.543Z,630.00
2023-06-29T12:27:40.525Z,624.38
2023-06-29T12:28:40.537Z,613.12
2023-06-29T12:29:40.522Z,601.88
2023-06-29T12:30:40.478Z,596.25
2023-06-29T12:31:40.474Z,590.62
2023-06-29T12:32:40.489Z,579.38
2023-06-29T12:33:40.453Z,568.12
2023-06-29T12:34:40.407Z,562.50
2023-06-29T12:35:40.393Z,551.25
2023-06-29T12:36:40.367Z,540.00
2023-06-29T12:37:40.357Z,523.12
2023-06-29T12:38:40.366Z,506.25
2023-06-29T12:39:40.392Z,489.38
2023-06-29T12:40:40.289Z,472.50
2023-06-29T12:41:40.276Z,450.00
2023-06-29T12:42:40.283Z,444.38
2023-06-29T12:43:40.274Z,433.12
2023-06-29T12:44:40.337Z,427.50
2023-06-29T12:45:40.203Z,421.88
2023-06-29T12:46:40.217Z,416.25
2023-06-29T12:47:40.244Z,410.62
2023-06-29T12:48:40.152Z,399.38